Dzherzhinskoe, Russia
Current Conditions -  °F | °C
As of 5:30 AM on Monday 24 Nov 2014 (Local Time) from UNKL Reporting Station
Snow Showers Snow Showers  
Wind Chill: 16°   Ceiling: 2900
Heat Index: 27°   Visibility: 1.1mi
Dew Point: 21°   Wind: 11mph
Humidity: 80%   Direction: 210°SSW
Pressure: 29.41"   Gusts: 20mph
Location:  56.85°N, 95.22°E
Report Text: UNKL 232230Z 21005G09MPS 1900 R29/P1500U SHSN BKN029CB OVC083M03/M06 Q0996 TEMPO 0400 +SHSN RMK QFE722 29////50
Loading
Personal Weather Stations






























Interactive Weather Map New forecast layout! Learn more

10-Day Weather Forecast

Advertisements
Track Severe Weather on mobile